Cowichan Bay, Canada
Current Conditions -  °F | °C
As of 2:00 PM on Friday 31 Oct 2014 (Local Time) from CYYJ Reporting Station
Broken Clouds Broken Clouds  
Wind Chill: 54°   Ceiling: 10000
Heat Index: 54°   Visibility: 15mi
Dew Point: 50°   Wind: 3mph
Humidity: 88%   Direction: 110°ESE
Pressure: 29.8"   Gusts: NA
Location:  48.73°N, 123.62°W
Report Text: CYYJ 312100Z 11003KT 090V160 15SM FEW006 FEW012 SCT055 BKN100 12/10 A2980 RMK SF1CF1SC4AC3 SF TR CF TR SLP090
Loading
Personal Weather Stations






























Interactive Weather Map
Tropical Storm Tracking
New forecast layout! Learn more

10-Day Weather Forecast

Advertisements
Track Severe Weather on mobile